»·PEaware :: SWA1321 KSJC-KBUR

SWA1321 :: KSJC-KBUR

FLIGHT INFORMATION

Flight Status: Arrived
Operator:
Southwest Airlines
More flights by this operator :: More flights under this callsign
Pilot: Chris G. (29692)
Aircraft: BOEING 737-800
(B738)
More flights by this aircraft type
Origin: KSJC Mineta San Jose Intl
United States
Destination: KBUR Bob Hope-Burbank
United States
More flights between these airports :: More routes between these airports
Route: TECKY3 EBAYE BURGL HONZK ROKKR2
File this flight plan on PilotEdge
Remarks: RMK / SIMBRIEF
Altitude:
(Current/Filed)
27,000ft
Speed:
(Current/Filed)
417kts
Departed: 22-May-20 08:49 PM
Arrived: 22-May-20 09:50 PM
Distance/Time
Traveled:
258nm/1:01
Distance/Time
To Go:
Arrived

Flight Plot

Page will automatically refresh every two minutes.


Map Options




Map Legend


Flown Route
Filed Route
Departure Airport
Arrival Airport
Navaid (VOR, NDB)
Fix

Horizontal Profiles

Position Reports

Time Latitude Longitude Heading Altitude Ground
Speed
22-May-20 20:15 37.366260 -121.926761 49 45ft 0kts
22-May-20 20:16 37.366260 -121.926761 49 45ft 0kts
22-May-20 20:17 37.366260 -121.926761 49 45ft 0kts
22-May-20 20:22 37.366260 -121.926761 49 45ft 0kts
22-May-20 20:23 37.366260 -121.926761 49 45ft 0kts
22-May-20 20:24 37.366260 -121.926761 49 45ft 0kts
22-May-20 20:25 37.366260 -121.926761 49 45ft 0kts
22-May-20 20:26 37.366260 -121.926761 49 45ft 0kts
22-May-20 20:27 37.366260 -121.926761 49 45ft 0kts
22-May-20 20:28 37.366260 -121.926761 49 45ft 0kts
22-May-20 20:29 37.366260 -121.926761 49 45ft 0kts
22-May-20 20:30 37.366260 -121.926761 49 45ft 0kts
22-May-20 20:31 37.366260 -121.926761 49 45ft 0kts
22-May-20 20:32 37.366260 -121.926761 49 45ft 0kts
22-May-20 20:33 37.366260 -121.926761 49 45ft 0kts
22-May-20 20:34 37.366260 -121.926761 49 45ft 0kts
22-May-20 20:35 37.366260 -121.926761 49 45ft 0kts
22-May-20 20:36 37.366260 -121.926761 49 45ft 0kts
22-May-20 20:37 37.366260 -121.926761 49 45ft 0kts
22-May-20 20:38 37.366260 -121.926761 49 45ft 0kts
22-May-20 20:39 37.366030 -121.927097 52 47ft 2kts
22-May-20 20:40 37.365969 -121.927561 117 48ft 1kts
22-May-20 20:41 37.366076 -121.927724 139 48ft 0kts
22-May-20 20:42 37.364210 -121.925705 138 49ft 22kts
22-May-20 20:43 37.360128 -121.921223 138 54ft 33kts
22-May-20 20:44 37.354868 -121.915465 139 62ft 23kts
22-May-20 20:45 37.353197 -121.914366 224 65ft 0kts
22-May-20 20:46 37.353197 -121.914366 224 65ft 0kts
22-May-20 20:47 37.352896 -121.914741 225 65ft 8kts
22-May-20 20:48 37.359414 -121.923140 320 91ft 149kts
22-May-20 20:49 37.382429 -121.948550 320 2256ft 192kts
22-May-20 20:50 37.420722 -121.972492 5 4231ft 255kts
22-May-20 20:51 37.453811 -121.919007 91 4979ft 276kts
22-May-20 20:52 37.416858 -121.872907 166 6229ft 286kts
22-May-20 20:53 37.366149 -121.831905 134 8994ft 298kts
22-May-20 20:54 37.309734 -121.766520 135 12123ft 310kts
22-May-20 20:55 37.249940 -121.698668 134 15273ft 331kts
22-May-20 20:56 37.199126 -121.641114 134 17843ft 353kts
22-May-20 20:57 37.135219 -121.568864 135 19176ft 424kts
22-May-20 20:58 37.071204 -121.496680 136 21697ft 441kts
22-May-20 20:59 36.995820 -121.415706 139 24115ft 463kts
22-May-20 21:00 36.919544 -121.334518 141 26447ft 477kts
22-May-20 21:01 36.849011 -121.259617 141 27061ft 502kts
22-May-20 21:02 36.770957 -121.176879 141 27049ft 499kts
22-May-20 21:03 36.691570 -121.092956 141 27053ft 501kts
22-May-20 21:04 36.611928 -121.009071 142 27053ft 502kts
22-May-20 21:05 36.530556 -120.926098 143 27048ft 503kts
22-May-20 21:06 36.453365 -120.847710 143 27014ft 504kts
22-May-20 21:07 36.380707 -120.774105 143 26989ft 505kts
22-May-20 21:08 36.302591 -120.695171 143 26993ft 505kts
22-May-20 21:09 36.222220 -120.614180 143 26988ft 505kts
22-May-20 21:10 36.140991 -120.532548 143 26997ft 505kts
22-May-20 21:11 36.056604 -120.447980 143 26994ft 505kts
22-May-20 21:12 35.974779 -120.366207 143 26985ft 505kts
22-May-20 21:14 35.924779 -120.316350 143 26974ft 505kts
22-May-20 21:15 35.861108 -120.255533 150 26940ft 502kts
22-May-20 21:16 35.789944 -120.201052 151 26979ft 501kts
22-May-20 21:17 35.728953 -120.155085 151 26977ft 501kts
22-May-20 21:18 35.651167 -120.101781 161 26968ft 495kts
22-May-20 21:19 35.573331 -120.065558 163 27011ft 494kts
22-May-20 21:20 35.491891 -120.028587 163 27001ft 495kts
22-May-20 21:21 35.410512 -119.991724 163 27006ft 494kts
22-May-20 21:22 35.329968 -119.955315 163 27022ft 493kts
22-May-20 21:23 35.252794 -119.920498 163 27031ft 490kts
22-May-20 21:24 35.171408 -119.883867 163 27050ft 490kts
22-May-20 21:25 35.091263 -119.838845 142 26974ft 498kts
22-May-20 21:26 35.034260 -119.754946 131 27030ft 504kts
22-May-20 21:27 34.975409 -119.671333 132 27018ft 497kts
22-May-20 21:28 34.916202 -119.587983 131 26983ft 486kts
22-May-20 21:29 34.860504 -119.509759 131 26982ft 474kts
22-May-20 21:29 34.813206 -119.443466 131 26969ft 477kts
22-May-20 21:31 34.746665 -119.350426 131 26974ft 476kts
22-May-20 21:32 34.694732 -119.277987 132 25080ft 480kts
22-May-20 21:32 34.646949 -119.211454 132 22587ft 435kts
22-May-20 21:34 34.586655 -119.127701 132 19005ft 386kts
22-May-20 21:34 34.546305 -119.072981 140 16496ft 362kts
22-May-20 21:35 34.485236 -119.015220 144 14112ft 371kts
22-May-20 21:36 34.423863 -118.957535 142 11534ft 356kts
22-May-20 21:37 34.372157 -118.906165 141 9017ft 314kts
22-May-20 21:38 34.324796 -118.854461 140 6865ft 313kts
22-May-20 21:39 34.287617 -118.796816 121 5478ft 312kts
22-May-20 21:40 34.258296 -118.734931 121 4362ft 301kts
22-May-20 21:41 34.229939 -118.674731 121 3936ft 267kts
22-May-20 21:42 34.208789 -118.628827 120 3968ft 234kts
22-May-20 21:43 34.201156 -118.579137 96 4080ft 238kts
22-May-20 21:44 34.199698 -118.531378 94 3629ft 192kts
22-May-20 21:45 34.199061 -118.494921 93 3301ft 170kts
22-May-20 21:46 34.199786 -118.457362 92 3346ft 165kts
22-May-20 21:47 34.198183 -118.422192 93 2854ft 162kts
22-May-20 21:48 34.197923 -118.378809 93 1064ft 158kts
22-May-20 21:49 34.197632 -118.353274 92 704ft 14kts
22-May-20 21:50 34.196956 -118.352229 180 702ft 0kts
22-May-20 21:51 34.196901 -118.352230 179 702ft 2kts
22-May-20 21:52 34.196780 -118.352230 180 702ft 0kts

Navigation Log

Ident Type
Flight plan parsing failed, navigation log unavailable